Terminal Aerodrome Forecast
Issued by NWS

Home | Current Version | Previous Version | Text Only | Print | Product List | Glossary Off
Versions: 1 2 3 4 5 6 7 8 9 10 11 12 13 14 15 16 17 18

000
FTUS43 KFGF 151100
TAFBJI
TAF
KBJI 151126Z 1512/1612 31012KT 2SM BR OVC004
      TEMPO 1513/1515 -FZDZ
     FM151600 33012G18KT P6SM OVC008
     FM152000 33017G23KT P6SM BKN010=

USA.gov is the U.S. government's official web portal to all federal, state and local government web resources and services.